GES001 EPLL-LOWK
Flight info
| Callsign | GES001 |
|---|---|
| Flight time | 1h 5m |
| Altitude | 51000 |
| Route | VIDEV N133 OVBOR N744 TUSIN DCT ODNEM DCT PEPIK DCT WGM DCT ABIRI |
| Aircraft | GLF5/M-SBDE2E3FGHIJ3J4J5P2RWXY/LB1D1 |
Departure
| Time | 2026-05-07 12:25 |
|---|---|
| Airport | Łódź Władysław Reymont Airport (EPLL) |
Arrival
| Time | 2026-05-07 13:31 |
|---|---|
| Airport | Klagenfurt Airport (LOWK) |
| Time | Latitude | Longitude | Altitude | Speed | Heading |
|---|---|---|---|---|---|
| 2026-05-07 11:56 | 51.72631 | 19.40433 | 599 ft | 0 kts | 287° |
| 2026-05-07 12:22 | 51.72631 | 19.40432 | 598 ft | 0 kts | 287° |
| 2026-05-07 12:22 | 51.72634 | 19.40406 | 598 ft | 4 kts | 273° |
| 2026-05-07 12:22 | 51.72604 | 19.40391 | 596 ft | 5 kts | 165° |
| 2026-05-07 12:22 | 51.72570 | 19.40417 | 597 ft | 4 kts | 142° |
| 2026-05-07 12:23 | 51.72553 | 19.40444 | 597 ft | 2 kts | 134° |
| 2026-05-07 12:23 | 51.72539 | 19.40469 | 598 ft | 4 kts | 131° |
| 2026-05-07 12:23 | 51.72496 | 19.40532 | 599 ft | 13 kts | 151° |
| 2026-05-07 12:23 | 51.72395 | 19.40591 | 598 ft | 12 kts | 162° |
| 2026-05-07 12:24 | 51.72350 | 19.40566 | 597 ft | 0 kts | 249° |
| 2026-05-07 12:24 | 51.72281 | 19.40253 | 590 ft | 72 kts | 250° |
| 2026-05-07 12:24 | 51.72018 | 19.39050 | 576 ft | 147 kts | 252° |
| 2026-05-07 12:25 | 51.71630 | 19.37411 | 1153 ft | 160 kts | 250° |
| 2026-05-07 12:25 | 51.71253 | 19.35701 | 1968 ft | 177 kts | 253° |
| 2026-05-07 12:25 | 51.70806 | 19.33576 | 2592 ft | 219 kts | 253° |
| 2026-05-07 12:25 | 51.70337 | 19.31407 | 4271 ft | 207 kts | 252° |
| 2026-05-07 12:26 | 51.69923 | 19.29272 | 5677 ft | 207 kts | 264° |
| 2026-05-07 12:26 | 51.70306 | 19.27106 | 6908 ft | 216 kts | 308° |
| 2026-05-07 12:26 | 51.71565 | 19.25854 | 8184 ft | 226 kts | 337° |
| 2026-05-07 12:26 | 51.73051 | 19.25023 | 9394 ft | 233 kts | 337° |
| 2026-05-07 12:27 | 51.74593 | 19.24153 | 10511 ft | 245 kts | 336° |
| 2026-05-07 12:27 | 51.76462 | 19.23693 | 10602 ft | 307 kts | 5° |
| 2026-05-07 12:27 | 51.78457 | 19.25159 | 11531 ft | 330 kts | 41° |
| 2026-05-07 12:27 | 51.79735 | 19.28154 | 12934 ft | 330 kts | 72° |
| 2026-05-07 12:28 | 51.80040 | 19.31790 | 14178 ft | 331 kts | 98° |
| 2026-05-07 12:28 | 51.79575 | 19.35377 | 15452 ft | 334 kts | 105° |
| 2026-05-07 12:28 | 51.79156 | 19.39095 | 16711 ft | 343 kts | 102° |
| 2026-05-07 12:28 | 51.78781 | 19.42914 | 17963 ft | 349 kts | 107° |
| 2026-05-07 12:29 | 51.77727 | 19.46358 | 19173 ft | 345 kts | 133° |
| 2026-05-07 12:29 | 51.76112 | 19.49143 | 20499 ft | 345 kts | 141° |
| 2026-05-07 12:29 | 51.74345 | 19.51745 | 21784 ft | 349 kts | 144° |
| 2026-05-07 12:29 | 51.72493 | 19.54273 | 23016 ft | 354 kts | 146° |
| 2026-05-07 12:30 | 51.70570 | 19.56806 | 24273 ft | 359 kts | 147° |
| 2026-05-07 12:30 | 51.68627 | 19.59319 | 25605 ft | 362 kts | 147° |
| 2026-05-07 12:30 | 51.66643 | 19.61866 | 26789 ft | 368 kts | 148° |
| 2026-05-07 12:30 | 51.64640 | 19.64427 | 28004 ft | 371 kts | 148° |
| 2026-05-07 12:31 | 51.62606 | 19.67021 | 29177 ft | 375 kts | 149° |
| 2026-05-07 12:31 | 51.60564 | 19.69621 | 30265 ft | 379 kts | 149° |
| 2026-05-07 12:31 | 51.58479 | 19.72271 | 31220 ft | 384 kts | 148° |
| 2026-05-07 12:31 | 51.56352 | 19.74967 | 31967 ft | 393 kts | 148° |
| 2026-05-07 12:32 | 51.54183 | 19.77717 | 32690 ft | 400 kts | 148° |
| 2026-05-07 12:32 | 51.51890 | 19.80252 | 33410 ft | 396 kts | 161° |
| 2026-05-07 12:32 | 51.49278 | 19.81774 | 34079 ft | 397 kts | 167° |
| 2026-05-07 12:32 | 51.46597 | 19.83174 | 34721 ft | 404 kts | 167° |
| 2026-05-07 12:33 | 51.41133 | 19.86022 | 35768 ft | 414 kts | 167° |
| 2026-05-07 12:33 | 51.38377 | 19.87456 | 36255 ft | 419 kts | 166° |
| 2026-05-07 12:33 | 51.35578 | 19.88911 | 36645 ft | 426 kts | 166° |
| 2026-05-07 12:34 | 51.32730 | 19.90390 | 37115 ft | 431 kts | 166° |
| 2026-05-07 12:34 | 51.29856 | 19.91881 | 37752 ft | 432 kts | 166° |
| 2026-05-07 12:34 | 51.26995 | 19.93364 | 38370 ft | 432 kts | 166° |
| 2026-05-07 12:34 | 51.24128 | 19.94847 | 38994 ft | 432 kts | 166° |
| 2026-05-07 12:35 | 51.21264 | 19.96326 | 39484 ft | 434 kts | 166° |
| 2026-05-07 12:35 | 51.18358 | 19.97825 | 39907 ft | 436 kts | 166° |
| 2026-05-07 12:35 | 51.15456 | 19.99320 | 40330 ft | 438 kts | 166° |
| 2026-05-07 12:35 | 51.12523 | 20.00407 | 40644 ft | 433 kts | 180° |
| 2026-05-07 12:36 | 51.09638 | 19.99852 | 40960 ft | 428 kts | 199° |
| 2026-05-07 12:36 | 51.07000 | 19.97713 | 41322 ft | 426 kts | 216° |
| 2026-05-07 12:36 | 51.04591 | 19.94952 | 41663 ft | 428 kts | 217° |
| 2026-05-07 12:36 | 51.02186 | 19.92141 | 42007 ft | 430 kts | 217° |
| 2026-05-07 12:37 | 50.99761 | 19.89284 | 42385 ft | 431 kts | 217° |
| 2026-05-07 12:37 | 50.97344 | 19.86430 | 42716 ft | 433 kts | 217° |
| 2026-05-07 12:37 | 50.94918 | 19.83564 | 43047 ft | 435 kts | 217° |
| 2026-05-07 12:37 | 50.92518 | 19.80734 | 43343 ft | 437 kts | 217° |
| 2026-05-07 12:38 | 50.90090 | 19.77873 | 43651 ft | 438 kts | 218° |
| 2026-05-07 12:38 | 50.87687 | 19.75045 | 43967 ft | 439 kts | 218° |
| 2026-05-07 12:38 | 50.85229 | 19.72158 | 44267 ft | 441 kts | 218° |
| 2026-05-07 12:38 | 50.82767 | 19.69268 | 44633 ft | 441 kts | 218° |
| 2026-05-07 12:39 | 50.80298 | 19.66374 | 45015 ft | 441 kts | 218° |
| 2026-05-07 12:39 | 50.77828 | 19.63482 | 45388 ft | 441 kts | 218° |
| 2026-05-07 12:39 | 50.75358 | 19.60597 | 45703 ft | 442 kts | 218° |
| 2026-05-07 12:39 | 50.72883 | 19.57707 | 46054 ft | 442 kts | 218° |
| 2026-05-07 12:40 | 50.70412 | 19.54827 | 46330 ft | 443 kts | 218° |
| 2026-05-07 12:40 | 50.67914 | 19.51919 | 46614 ft | 443 kts | 218° |
| 2026-05-07 12:40 | 50.65427 | 19.49027 | 46888 ft | 444 kts | 217° |
| 2026-05-07 12:40 | 50.62925 | 19.46123 | 47165 ft | 445 kts | 217° |
| 2026-05-07 12:41 | 50.60407 | 19.43203 | 47414 ft | 445 kts | 217° |
| 2026-05-07 12:41 | 50.57920 | 19.40324 | 47673 ft | 445 kts | 217° |
| 2026-05-07 12:41 | 50.55406 | 19.37417 | 47919 ft | 446 kts | 217° |
| 2026-05-07 12:41 | 50.52908 | 19.34533 | 48132 ft | 447 kts | 217° |
| 2026-05-07 12:42 | 50.50388 | 19.31626 | 48376 ft | 446 kts | 217° |
| 2026-05-07 12:42 | 50.47874 | 19.28731 | 48596 ft | 447 kts | 217° |
| 2026-05-07 12:42 | 50.45356 | 19.25836 | 48825 ft | 447 kts | 217° |
| 2026-05-07 12:42 | 50.42837 | 19.22943 | 49031 ft | 447 kts | 217° |
| 2026-05-07 12:43 | 50.40317 | 19.20052 | 49205 ft | 448 kts | 217° |
| 2026-05-07 12:43 | 50.37796 | 19.17165 | 49382 ft | 448 kts | 217° |
| 2026-05-07 12:43 | 50.35267 | 19.14272 | 49570 ft | 448 kts | 217° |
| 2026-05-07 12:43 | 50.32748 | 19.11394 | 49736 ft | 449 kts | 217° |
| 2026-05-07 12:44 | 50.30226 | 19.08517 | 49889 ft | 449 kts | 217° |
| 2026-05-07 12:44 | 50.27696 | 19.05635 | 50033 ft | 449 kts | 217° |
| 2026-05-07 12:44 | 50.25153 | 19.02742 | 50179 ft | 450 kts | 217° |
| 2026-05-07 12:44 | 50.22624 | 18.99868 | 50328 ft | 450 kts | 217° |
| 2026-05-07 12:45 | 50.20081 | 18.96983 | 50476 ft | 450 kts | 217° |
| 2026-05-07 12:45 | 50.17541 | 18.94105 | 50611 ft | 450 kts | 216° |
| 2026-05-07 12:45 | 50.14999 | 18.91229 | 50713 ft | 451 kts | 216° |
| 2026-05-07 12:45 | 50.12451 | 18.88349 | 50842 ft | 451 kts | 217° |
| 2026-05-07 12:46 | 50.07359 | 18.82606 | 50922 ft | 455 kts | 217° |
| 2026-05-07 12:46 | 50.02211 | 18.76817 | 50920 ft | 462 kts | 217° |
| 2026-05-07 12:47 | 49.96970 | 18.70937 | 50925 ft | 466 kts | 217° |
| 2026-05-07 12:47 | 49.91695 | 18.65037 | 50921 ft | 470 kts | 217° |
| 2026-05-07 12:48 | 49.86404 | 18.59134 | 50928 ft | 471 kts | 217° |
| 2026-05-07 12:48 | 49.81488 | 18.52563 | 50931 ft | 465 kts | 224° |
| 2026-05-07 12:49 | 49.76774 | 18.45720 | 50925 ft | 463 kts | 224° |
| 2026-05-07 12:49 | 49.72067 | 18.38916 | 50933 ft | 465 kts | 224° |
| 2026-05-07 12:50 | 49.67387 | 18.32169 | 50946 ft | 465 kts | 223° |
| 2026-05-07 12:50 | 49.62628 | 18.25328 | 50942 ft | 464 kts | 223° |
| 2026-05-07 12:51 | 49.57898 | 18.18547 | 50943 ft | 463 kts | 223° |
| 2026-05-07 12:51 | 49.53176 | 18.11796 | 50940 ft | 462 kts | 223° |
| 2026-05-07 12:52 | 49.48464 | 18.05078 | 50935 ft | 462 kts | 223° |
| 2026-05-07 12:52 | 49.43798 | 17.98444 | 50945 ft | 462 kts | 223° |
| 2026-05-07 12:53 | 49.39230 | 17.91966 | 50949 ft | 462 kts | 223° |
| 2026-05-07 12:53 | 49.34624 | 17.85453 | 50941 ft | 460 kts | 223° |
| 2026-05-07 12:54 | 49.29983 | 17.78907 | 50945 ft | 460 kts | 223° |
| 2026-05-07 12:54 | 49.25323 | 17.72352 | 50946 ft | 459 kts | 223° |
| 2026-05-07 12:55 | 49.20648 | 17.65794 | 50953 ft | 458 kts | 223° |
| 2026-05-07 12:55 | 49.15940 | 17.59206 | 50947 ft | 457 kts | 223° |
| 2026-05-07 12:56 | 49.11220 | 17.52621 | 50955 ft | 456 kts | 223° |
| 2026-05-07 12:56 | 49.06518 | 17.46077 | 50970 ft | 456 kts | 223° |
| 2026-05-07 12:57 | 49.01807 | 17.39539 | 50956 ft | 456 kts | 223° |
| 2026-05-07 12:57 | 48.97134 | 17.33070 | 50967 ft | 455 kts | 222° |
| 2026-05-07 12:58 | 48.92433 | 17.26581 | 50965 ft | 455 kts | 222° |
| 2026-05-07 12:58 | 48.89178 | 17.22097 | 50959 ft | 456 kts | 222° |
| 2026-05-07 12:59 | 48.82614 | 17.13373 | 50964 ft | 457 kts | 219° |
| 2026-05-07 12:59 | 48.77738 | 17.07230 | 50970 ft | 456 kts | 220° |
| 2026-05-07 13:00 | 48.72892 | 17.00948 | 50967 ft | 456 kts | 220° |
| 2026-05-07 13:00 | 48.68058 | 16.94701 | 50960 ft | 455 kts | 220° |
| 2026-05-07 13:01 | 48.63236 | 16.88486 | 50956 ft | 455 kts | 220° |
| 2026-05-07 13:01 | 48.58398 | 16.82267 | 50949 ft | 457 kts | 220° |
| 2026-05-07 13:02 | 48.53597 | 16.76112 | 50793 ft | 444 kts | 221° |
| 2026-05-07 13:02 | 48.48960 | 16.70182 | 50668 ft | 432 kts | 220° |
| 2026-05-07 13:03 | 48.46644 | 16.67224 | 50393 ft | 437 kts | 220° |
| 2026-05-07 13:03 | 48.44289 | 16.64222 | 49867 ft | 446 kts | 220° |
| 2026-05-07 13:03 | 48.41900 | 16.61180 | 49280 ft | 450 kts | 220° |
| 2026-05-07 13:03 | 48.39537 | 16.58176 | 48692 ft | 448 kts | 221° |
| 2026-05-07 13:04 | 48.37151 | 16.55145 | 48094 ft | 445 kts | 221° |
| 2026-05-07 13:04 | 48.34797 | 16.52160 | 47507 ft | 441 kts | 221° |
| 2026-05-07 13:04 | 48.32449 | 16.49225 | 46928 ft | 436 kts | 218° |
| 2026-05-07 13:04 | 48.29967 | 16.46640 | 46367 ft | 432 kts | 215° |
| 2026-05-07 13:05 | 48.27472 | 16.44133 | 45779 ft | 430 kts | 215° |
| 2026-05-07 13:05 | 48.24999 | 16.41641 | 45222 ft | 430 kts | 215° |
| 2026-05-07 13:05 | 48.22527 | 16.39152 | 44676 ft | 431 kts | 216° |
| 2026-05-07 13:05 | 48.20049 | 16.36657 | 44090 ft | 431 kts | 215° |
| 2026-05-07 13:06 | 48.17562 | 16.34156 | 43524 ft | 431 kts | 214° |
| 2026-05-07 13:06 | 48.15063 | 16.31647 | 42947 ft | 430 kts | 214° |
| 2026-05-07 13:06 | 48.12585 | 16.29161 | 42373 ft | 429 kts | 214° |
| 2026-05-07 13:06 | 48.10116 | 16.26689 | 41802 ft | 428 kts | 214° |
| 2026-05-07 13:07 | 48.07663 | 16.24234 | 41234 ft | 427 kts | 214° |
| 2026-05-07 13:07 | 48.05198 | 16.21770 | 40668 ft | 426 kts | 214° |
| 2026-05-07 13:07 | 48.02731 | 16.19308 | 40092 ft | 426 kts | 214° |
| 2026-05-07 13:07 | 48.00269 | 16.16853 | 39531 ft | 425 kts | 214° |
| 2026-05-07 13:08 | 47.97803 | 16.14396 | 38952 ft | 424 kts | 214° |
| 2026-05-07 13:08 | 47.95355 | 16.11962 | 38434 ft | 423 kts | 215° |
| 2026-05-07 13:08 | 47.92928 | 16.09550 | 37920 ft | 421 kts | 214° |
| 2026-05-07 13:08 | 47.90541 | 16.07180 | 37380 ft | 418 kts | 214° |
| 2026-05-07 13:09 | 47.88155 | 16.04815 | 36841 ft | 414 kts | 214° |
| 2026-05-07 13:09 | 47.85768 | 16.02451 | 36322 ft | 410 kts | 214° |
| 2026-05-07 13:09 | 47.83414 | 16.00122 | 35779 ft | 406 kts | 214° |
| 2026-05-07 13:09 | 47.81082 | 15.97818 | 35243 ft | 403 kts | 214° |
| 2026-05-07 13:10 | 47.78753 | 15.95521 | 34697 ft | 402 kts | 214° |
| 2026-05-07 13:10 | 47.76437 | 15.93235 | 34121 ft | 400 kts | 213° |
| 2026-05-07 13:10 | 47.74120 | 15.90953 | 33537 ft | 400 kts | 214° |
| 2026-05-07 13:10 | 47.71792 | 15.88665 | 32994 ft | 402 kts | 213° |
| 2026-05-07 13:11 | 47.69445 | 15.86357 | 32456 ft | 405 kts | 213° |
| 2026-05-07 13:11 | 47.67079 | 15.84036 | 31905 ft | 406 kts | 213° |
| 2026-05-07 13:11 | 47.64729 | 15.81730 | 31372 ft | 407 kts | 213° |
| 2026-05-07 13:11 | 47.62474 | 15.79522 | 30855 ft | 402 kts | 213° |
| 2026-05-07 13:12 | 47.60157 | 15.77254 | 30300 ft | 390 kts | 213° |
| 2026-05-07 13:12 | 47.57946 | 15.75095 | 29784 ft | 378 kts | 213° |
| 2026-05-07 13:12 | 47.55774 | 15.72975 | 29283 ft | 369 kts | 213° |
| 2026-05-07 13:12 | 47.53633 | 15.70886 | 28794 ft | 368 kts | 213° |
| 2026-05-07 13:13 | 47.51484 | 15.68792 | 28306 ft | 369 kts | 213° |
| 2026-05-07 13:13 | 47.49338 | 15.66703 | 27816 ft | 369 kts | 213° |
| 2026-05-07 13:13 | 47.47233 | 15.64657 | 27335 ft | 366 kts | 213° |
| 2026-05-07 13:13 | 47.45122 | 15.62605 | 26846 ft | 364 kts | 213° |
| 2026-05-07 13:14 | 47.43007 | 15.60551 | 26365 ft | 362 kts | 213° |
| 2026-05-07 13:14 | 47.40904 | 15.58512 | 25884 ft | 360 kts | 213° |
| 2026-05-07 13:14 | 47.38812 | 15.56486 | 25405 ft | 358 kts | 213° |
| 2026-05-07 13:14 | 47.36722 | 15.54464 | 24917 ft | 357 kts | 214° |
| 2026-05-07 13:15 | 47.34646 | 15.52455 | 24445 ft | 355 kts | 213° |
| 2026-05-07 13:15 | 47.32577 | 15.50459 | 23965 ft | 353 kts | 214° |
| 2026-05-07 13:15 | 47.30527 | 15.48479 | 23498 ft | 351 kts | 214° |
| 2026-05-07 13:15 | 47.28474 | 15.46499 | 23038 ft | 350 kts | 213° |
| 2026-05-07 13:16 | 47.26469 | 15.44568 | 22572 ft | 348 kts | 214° |
| 2026-05-07 13:16 | 47.24453 | 15.42628 | 22104 ft | 347 kts | 214° |
| 2026-05-07 13:16 | 47.22429 | 15.40682 | 21648 ft | 345 kts | 214° |
| 2026-05-07 13:16 | 47.20427 | 15.38758 | 21197 ft | 343 kts | 214° |
| 2026-05-07 13:17 | 47.18421 | 15.36834 | 20728 ft | 342 kts | 214° |
| 2026-05-07 13:17 | 47.16423 | 15.34919 | 20276 ft | 341 kts | 213° |
| 2026-05-07 13:17 | 47.14438 | 15.33016 | 19831 ft | 339 kts | 213° |
| 2026-05-07 13:17 | 47.12465 | 15.31128 | 19384 ft | 338 kts | 213° |
| 2026-05-07 13:18 | 47.10501 | 15.29250 | 18931 ft | 338 kts | 213° |
| 2026-05-07 13:18 | 47.08537 | 15.27373 | 18482 ft | 335 kts | 213° |
| 2026-05-07 13:18 | 47.06588 | 15.25513 | 18032 ft | 335 kts | 213° |
| 2026-05-07 13:18 | 47.04640 | 15.23655 | 17589 ft | 334 kts | 213° |
| 2026-05-07 13:19 | 47.02696 | 15.21803 | 17143 ft | 332 kts | 213° |
| 2026-05-07 13:19 | 47.00749 | 15.19950 | 16706 ft | 332 kts | 213° |
| 2026-05-07 13:19 | 46.98817 | 15.18113 | 16298 ft | 330 kts | 214° |
| 2026-05-07 13:19 | 46.96884 | 15.16275 | 15897 ft | 330 kts | 214° |
| 2026-05-07 13:20 | 46.94949 | 15.14437 | 15470 ft | 331 kts | 214° |
| 2026-05-07 13:20 | 46.93022 | 15.12609 | 15047 ft | 329 kts | 214° |
| 2026-05-07 13:20 | 46.91096 | 15.10784 | 14628 ft | 329 kts | 214° |
| 2026-05-07 13:20 | 46.89199 | 15.08987 | 14205 ft | 326 kts | 214° |
| 2026-05-07 13:21 | 46.87292 | 15.07183 | 13775 ft | 325 kts | 214° |
| 2026-05-07 13:21 | 46.85391 | 15.05386 | 13346 ft | 324 kts | 214° |
| 2026-05-07 13:21 | 46.83495 | 15.03594 | 12921 ft | 324 kts | 214° |
| 2026-05-07 13:21 | 46.81624 | 15.01828 | 12501 ft | 322 kts | 213° |
| 2026-05-07 13:22 | 46.79738 | 15.00049 | 12080 ft | 321 kts | 213° |
| 2026-05-07 13:22 | 46.77853 | 14.98272 | 11639 ft | 320 kts | 213° |
| 2026-05-07 13:22 | 46.76127 | 14.96252 | 11191 ft | 318 kts | 231° |
| 2026-05-07 13:22 | 46.74935 | 14.93527 | 10787 ft | 314 kts | 239° |
| 2026-05-07 13:23 | 46.73840 | 14.90816 | 10356 ft | 307 kts | 239° |
| 2026-05-07 13:23 | 46.72769 | 14.88167 | 9952 ft | 300 kts | 239° |
| 2026-05-07 13:23 | 46.71719 | 14.85576 | 9557 ft | 293 kts | 238° |
| 2026-05-07 13:23 | 46.70689 | 14.83038 | 9174 ft | 287 kts | 238° |
| 2026-05-07 13:24 | 46.69677 | 14.80545 | 8799 ft | 282 kts | 238° |
| 2026-05-07 13:24 | 46.68677 | 14.78087 | 8427 ft | 278 kts | 239° |
| 2026-05-07 13:24 | 46.67699 | 14.75682 | 8059 ft | 264 kts | 239° |
| 2026-05-07 13:24 | 46.66839 | 14.73567 | 7908 ft | 223 kts | 238° |
| 2026-05-07 13:25 | 46.66063 | 14.71661 | 7521 ft | 216 kts | 238° |
| 2026-05-07 13:25 | 46.65288 | 14.69762 | 6907 ft | 220 kts | 238° |
| 2026-05-07 13:25 | 46.64514 | 14.67866 | 6436 ft | 216 kts | 238° |
| 2026-05-07 13:25 | 46.63747 | 14.65989 | 5926 ft | 215 kts | 238° |
| 2026-05-07 13:26 | 46.62983 | 14.64121 | 5416 ft | 214 kts | 238° |
| 2026-05-07 13:26 | 46.62230 | 14.62278 | 5278 ft | 211 kts | 238° |
| 2026-05-07 13:26 | 46.61467 | 14.60415 | 5040 ft | 214 kts | 238° |
| 2026-05-07 13:26 | 46.60702 | 14.58547 | 4768 ft | 214 kts | 238° |
| 2026-05-07 13:27 | 46.59951 | 14.56664 | 4480 ft | 215 kts | 245° |
| 2026-05-07 13:27 | 46.59806 | 14.54518 | 4181 ft | 218 kts | 284° |
| 2026-05-07 13:27 | 46.60358 | 14.52475 | 3931 ft | 215 kts | 290° |
| 2026-05-07 13:27 | 46.60848 | 14.50431 | 3613 ft | 213 kts | 286° |
| 2026-05-07 13:28 | 46.61280 | 14.48416 | 3295 ft | 198 kts | 285° |
| 2026-05-07 13:28 | 46.61646 | 14.46643 | 3054 ft | 168 kts | 284° |
| 2026-05-07 13:28 | 46.61950 | 14.45153 | 2816 ft | 141 kts | 284° |
| 2026-05-07 13:28 | 46.62210 | 14.43872 | 2627 ft | 127 kts | 284° |
| 2026-05-07 13:29 | 46.62460 | 14.42630 | 2480 ft | 127 kts | 284° |
| 2026-05-07 13:29 | 46.62712 | 14.41387 | 2325 ft | 128 kts | 284° |
| 2026-05-07 13:29 | 46.62963 | 14.40138 | 2157 ft | 129 kts | 285° |
| 2026-05-07 13:29 | 46.63218 | 14.38874 | 1989 ft | 130 kts | 284° |
| 2026-05-07 13:30 | 46.63471 | 14.37610 | 1797 ft | 131 kts | 284° |
| 2026-05-07 13:30 | 46.63728 | 14.36343 | 1614 ft | 130 kts | 285° |
| 2026-05-07 13:30 | 46.63990 | 14.35087 | 1492 ft | 129 kts | 285° |
| 2026-05-07 13:30 | 46.64225 | 14.33899 | 1501 ft | 103 kts | 285° |
| 2026-05-07 13:31 | 46.64360 | 14.33232 | 1506 ft | 46 kts | 285° |
| 2026-05-07 13:31 | 46.64441 | 14.32905 | 1504 ft | 20 kts | 316° |
| 2026-05-07 13:31 | 46.64542 | 14.32828 | 1507 ft | 8 kts | 335° |
| 2026-05-07 13:31 | 46.64560 | 14.32815 | 1507 ft | 1 kts | 334° |
| 2026-05-07 13:32 | 46.64562 | 14.32814 | 1507 ft | 0 kts | 334° |
| 2026-05-07 13:32 | 46.64566 | 14.32810 | 1507 ft | 0 kts | 333° |
| 2026-05-07 13:33 | 46.64567 | 14.32810 | 1507 ft | 0 kts | 333° |
| 2026-05-07 13:33 | 46.64588 | 14.32794 | 1508 ft | 6 kts | 332° |
| 2026-05-07 13:33 | 46.64654 | 14.32740 | 1509 ft | 15 kts | 321° |
| 2026-05-07 13:33 | 46.64742 | 14.32646 | 1511 ft | 14 kts | 338° |
| 2026-05-07 13:34 | 46.64828 | 14.32612 | 1515 ft | 11 kts | 346° |
| 2026-05-07 13:34 | 46.64928 | 14.32562 | 1517 ft | 4 kts | 300° |
| 2026-05-07 13:34 | 46.64928 | 14.32535 | 1517 ft | 0 kts | 255° |